createdAt,value
2017-05-29T00:00:19.413Z,6.47
2017-05-29T00:02:46.344Z,6.98
2017-05-29T00:05:13.288Z,6.92
2017-05-29T00:07:40.244Z,6.32
2017-05-29T00:10:07.184Z,6.35
2017-05-29T00:12:34.101Z,6.67
2017-05-29T00:15:01.053Z,6.15
2017-05-29T00:17:27.978Z,6.42
2017-05-29T00:19:54.901Z,6.75
2017-05-29T00:22:21.856Z,7.03
2017-05-29T00:24:48.832Z,7.28
2017-05-29T00:27:15.777Z,7.25
2017-05-29T00:29:42.801Z,6.62
2017-05-29T00:32:09.733Z,7.18
2017-05-29T00:34:36.654Z,6.70
2017-05-29T00:37:03.598Z,7.18
2017-05-29T00:39:30.532Z,7.10
2017-05-29T00:41:57.544Z,7.12
2017-05-29T00:44:24.516Z,6.38
2017-05-29T00:46:51.430Z,6.43
2017-05-29T00:49:18.353Z,6.42
2017-05-29T00:51:45.317Z,6.88
2017-05-29T00:54:12.253Z,6.65
2017-05-29T00:56:39.188Z,6.70
2017-05-29T00:59:06.140Z,6.77
2017-05-29T01:01:33.068Z,6.82
2017-05-29T01:04:00.020Z,13.43
2017-05-29T01:06:26.945Z,15.32
2017-05-29T01:08:53.864Z,26.32
2017-05-29T01:11:20.841Z,13.88
2017-05-29T01:13:47.777Z,11.28
2017-05-29T01:16:14.699Z,22.73
2017-05-29T01:18:41.654Z,27.13
2017-05-29T01:21:08.608Z,18.53
2017-05-29T01:23:35.532Z,16.23
2017-05-29T01:26:02.483Z,11.08
2017-05-29T01:28:29.413Z,8.02
2017-05-29T01:30:56.429Z,10.13
2017-05-29T01:33:23.407Z,9.90
2017-05-29T01:35:50.355Z,9.12
2017-05-29T01:38:17.341Z,8.30
2017-05-29T01:40:44.275Z,8.00
2017-05-29T01:43:11.284Z,7.15
2017-05-29T01:45:38.233Z,6.27
2017-05-29T01:48:05.229Z,6.83
2017-05-29T01:50:32.189Z,6.60
2017-05-29T01:52:59.106Z,6.75
2017-05-29T01:55:26.075Z,6.43
2017-05-29T01:57:52.994Z,6.50
2017-05-29T02:00:19.985Z,6.58
2017-05-29T02:02:46.900Z,6.10
2017-05-29T02:05:13.826Z,5.97
2017-05-29T02:07:40.808Z,6.42
2017-05-29T02:10:07.728Z,6.85
2017-05-29T02:12:34.657Z,6.55
2017-05-29T02:15:01.612Z,6.88
2017-05-29T02:17:28.534Z,7.10
2017-05-29T02:19:55.465Z,6.82
2017-05-29T02:22:22.428Z,6.90
2017-05-29T02:24:49.378Z,6.67
2017-05-29T02:27:16.294Z,7.38
2017-05-29T02:29:43.255Z,7.58
2017-05-29T02:32:10.188Z,6.92
2017-05-29T02:34:37.126Z,7.38
2017-05-29T02:37:04.084Z,6.95
2017-05-29T02:39:31.004Z,6.92
2017-05-29T02:41:57.947Z,6.80
2017-05-29T02:44:24.896Z,6.47
2017-05-29T02:46:51.885Z,7.28
2017-05-29T02:49:18.869Z,6.98
2017-05-29T02:51:45.816Z,6.38
2017-05-29T02:54:12.741Z,6.50
2017-05-29T02:56:39.704Z,6.92
2017-05-29T02:59:06.664Z,6.67
2017-05-29T03:01:33.582Z,7.05
2017-05-29T03:04:00.517Z,7.12
2017-05-29T03:06:27.470Z,6.97
2017-05-29T03:08:54.397Z,6.50
2017-05-29T03:11:21.362Z,6.10
2017-05-29T03:13:48.284Z,7.00
2017-05-29T03:16:15.221Z,7.48
2017-05-29T03:18:42.190Z,6.95
2017-05-29T03:21:09.121Z,7.10
2017-05-29T03:23:36.058Z,6.62
2017-05-29T03:26:03.009Z,6.77
2017-05-29T03:28:29.941Z,7.05
2017-05-29T03:30:56.885Z,7.27
2017-05-29T03:33:23.845Z,7.78
2017-05-29T03:35:50.772Z,7.57
2017-05-29T03:38:17.738Z,6.62
2017-05-29T03:40:44.675Z,7.38
2017-05-29T03:43:11.624Z,7.53
2017-05-29T03:45:38.589Z,7.23
2017-05-29T03:48:05.513Z,6.78
2017-05-29T03:50:32.447Z,7.12
2017-05-29T03:52:59.388Z,6.48
2017-05-29T03:55:26.345Z,6.48
2017-05-29T03:57:53.261Z,6.65
2017-05-29T04:00:20.197Z,6.75
2017-05-29T04:02:47.158Z,7.08
2017-05-29T04:05:14.088Z,6.55
2017-05-29T04:07:41.037Z,6.15
2017-05-29T04:10:07.954Z,6.58
2017-05-29T04:12:34.878Z,6.72
2017-05-29T04:15:01.816Z,8.78
2017-05-29T04:17:28.710Z,9.97
2017-05-29T04:19:55.608Z,11.83
2017-05-29T04:22:21.795Z,9.40
2017-05-29T04:24:48.705Z,8.30
2017-05-29T04:27:15.606Z,7.95
2017-05-29T04:29:42.506Z,7.17
2017-05-29T04:32:09.446Z,7.82
2017-05-29T04:34:36.372Z,8.70
2017-05-29T04:37:03.298Z,8.02
2017-05-29T04:39:30.192Z,8.82
2017-05-29T04:41:57.112Z,9.40
2017-05-29T04:44:24.046Z,8.67
2017-05-29T04:46:50.975Z,9.83
2017-05-29T04:49:17.897Z,9.32
2017-05-29T04:51:44.822Z,10.22
2017-05-29T04:54:11.703Z,8.68
2017-05-29T04:56:38.885Z,8.23
2017-05-29T04:59:05.787Z,8.30
2017-05-29T05:01:32.692Z,8.13
2017-05-29T05:03:59.647Z,7.40
2017-05-29T05:06:26.612Z,6.85
2017-05-29T05:08:53.556Z,5.52
2017-05-29T05:11:20.488Z,5.55
2017-05-29T05:13:47.439Z,5.68
2017-05-29T05:16:14.421Z,6.18
2017-05-29T05:18:41.352Z,6.20
2017-05-29T05:21:08.753Z,5.42
2017-05-29T05:23:35.721Z,5.68
2017-05-29T05:26:02.653Z,5.98
2017-05-29T05:28:29.576Z,6.07
2017-05-29T05:30:56.581Z,5.87
2017-05-29T05:33:23.517Z,5.87
2017-05-29T05:35:50.453Z,6.08
2017-05-29T05:38:17.415Z,5.88
2017-05-29T05:40:44.385Z,8.67
2017-05-29T05:43:11.332Z,7.95
2017-05-29T05:45:38.294Z,6.85
2017-05-29T05:48:05.238Z,6.57
2017-05-29T05:50:32.172Z,7.20
2017-05-29T05:52:58.384Z,6.25
2017-05-29T05:55:25.296Z,6.58
2017-05-29T05:57:51.485Z,5.78
2017-05-29T06:00:18.464Z,7.28
2017-05-29T06:02:45.389Z,6.98
2017-05-29T06:05:12.323Z,7.07
2017-05-29T06:07:39.364Z,6.93
2017-05-29T06:10:06.327Z,6.80
2017-05-29T06:12:33.266Z,6.25
2017-05-29T06:15:00.214Z,6.58
2017-05-29T06:17:27.162Z,6.03
2017-05-29T06:19:54.085Z,5.98
2017-05-29T06:22:21.076Z,6.13
2017-05-29T06:24:48.012Z,5.98
2017-05-29T06:27:14.960Z,6.62
2017-05-29T06:29:42.013Z,6.63
2017-05-29T06:32:08.955Z,6.68
2017-05-29T06:34:35.889Z,5.70
2017-05-29T06:37:02.852Z,5.55
2017-05-29T06:39:29.793Z,5.50
2017-05-29T06:41:56.729Z,6.62
2017-05-29T06:44:23.695Z,5.92
2017-05-29T06:46:50.664Z,6.12
2017-05-29T06:49:17.671Z,5.78
2017-05-29T06:51:44.613Z,5.52
2017-05-29T06:54:11.575Z,5.13
2017-05-29T06:56:38.578Z,4.40
2017-05-29T06:59:05.545Z,4.35
2017-05-29T07:01:32.488Z,4.57
2017-05-29T07:03:58.734Z,4.55
2017-05-29T07:06:25.677Z,4.97
2017-05-29T07:08:52.611Z,5.25
2017-05-29T07:11:19.606Z,4.55
2017-05-29T07:13:46.594Z,5.10
2017-05-29T07:16:13.631Z,5.10
2017-05-29T07:18:40.564Z,4.85
2017-05-29T07:21:07.520Z,4.87
2017-05-29T07:23:33.709Z,4.93
2017-05-29T07:26:00.644Z,4.78
2017-05-29T07:28:27.608Z,5.02
2017-05-29T07:30:54.532Z,4.87
2017-05-29T07:33:21.472Z,5.05
2017-05-29T07:35:48.424Z,4.50
2017-05-29T07:38:15.372Z,4.70
2017-05-29T07:40:42.323Z,4.88
2017-05-29T07:43:09.276Z,5.23
2017-05-29T07:45:36.241Z,4.23
2017-05-29T07:48:03.217Z,4.80
2017-05-29T07:50:30.150Z,4.60
2017-05-29T07:52:57.085Z,4.52
2017-05-29T07:55:24.050Z,4.17
2017-05-29T07:57:50.997Z,4.50
2017-05-29T08:00:18.008Z,4.30
2017-05-29T08:02:44.968Z,4.87
2017-05-29T08:05:11.948Z,4.17
2017-05-29T08:07:38.892Z,4.08
2017-05-29T08:10:05.844Z,3.87
2017-05-29T08:12:32.877Z,3.60
2017-05-29T08:14:59.838Z,3.85
2017-05-29T08:17:26.781Z,3.68
2017-05-29T08:19:53.757Z,3.70
2017-05-29T08:22:20.690Z,3.80
2017-05-29T08:24:47.654Z,4.23
2017-05-29T08:27:14.596Z,4.43
2017-05-29T08:29:41.534Z,4.05
2017-05-29T08:32:07.810Z,4.00
2017-05-29T08:34:34.746Z,3.90
2017-05-29T08:37:01.672Z,4.62
2017-05-29T08:39:28.629Z,4.20
2017-05-29T08:41:55.615Z,4.47
2017-05-29T08:44:22.545Z,3.93
2017-05-29T08:46:49.586Z,4.70
2017-05-29T08:49:16.574Z,4.57
2017-05-29T08:51:43.492Z,4.23
2017-05-29T08:54:10.433Z,3.93
2017-05-29T08:56:37.409Z,4.32
2017-05-29T08:59:04.381Z,3.92
2017-05-29T09:01:31.329Z,4.35
2017-05-29T09:03:58.256Z,4.07
2017-05-29T09:06:25.213Z,3.90
2017-05-29T09:08:52.176Z,4.10
2017-05-29T09:11:19.130Z,4.13
2017-05-29T09:13:46.063Z,4.07
2017-05-29T09:16:13.044Z,4.00
2017-05-29T09:18:39.996Z,4.15
2017-05-29T09:21:06.930Z,3.98
2017-05-29T09:23:33.906Z,4.00
2017-05-29T09:26:00.841Z,4.10
2017-05-29T09:28:27.780Z,3.95
2017-05-29T09:30:54.805Z,4.00
2017-05-29T09:33:21.741Z,3.93
2017-05-29T09:35:48.679Z,3.70
2017-05-29T09:38:15.644Z,3.50
2017-05-29T09:40:42.603Z,3.90
2017-05-29T09:43:09.552Z,3.97
2017-05-29T09:45:36.517Z,3.58
2017-05-29T09:48:03.500Z,4.05
2017-05-29T09:50:30.524Z,3.90
2017-05-29T09:52:57.440Z,3.77
2017-05-29T09:55:24.401Z,3.97
2017-05-29T09:57:51.334Z,3.95
2017-05-29T10:00:18.305Z,3.87
2017-05-29T10:02:45.248Z,3.82
2017-05-29T10:05:12.244Z,3.70
2017-05-29T10:07:40.299Z,4.10
2017-05-29T10:10:07.233Z,3.50
2017-05-29T10:12:34.191Z,3.77
2017-05-29T10:15:01.131Z,3.10
2017-05-29T10:17:28.139Z,3.35
2017-05-29T10:19:55.153Z,3.48
2017-05-29T10:22:22.150Z,3.82
2017-05-29T10:24:49.116Z,3.90
2017-05-29T10:27:16.080Z,3.80
2017-05-29T10:29:43.008Z,3.40
2017-05-29T10:32:10.001Z,3.88
2017-05-29T10:34:36.981Z,3.80
2017-05-29T10:37:03.978Z,3.70
2017-05-29T10:39:31.804Z,4.00
2017-05-29T10:41:58.767Z,4.10
2017-05-29T10:44:25.727Z,4.07
2017-05-29T10:46:52.657Z,3.93
2017-05-29T10:49:19.633Z,4.22
2017-05-29T10:51:46.572Z,3.45
2017-05-29T10:54:13.506Z,3.82
2017-05-29T10:56:39.737Z,4.02
2017-05-29T10:59:06.661Z,3.97
2017-05-29T11:01:33.596Z,4.25
2017-05-29T11:04:00.605Z,4.37
2017-05-29T11:06:27.539Z,4.18
2017-05-29T11:08:54.476Z,4.40
2017-05-29T11:11:21.538Z,4.87
2017-05-29T11:13:48.716Z,4.78
2017-05-29T11:16:15.657Z,4.20
2017-05-29T11:18:42.616Z,5.13
2017-05-29T11:21:09.600Z,4.60
2017-05-29T11:23:36.531Z,4.63
2017-05-29T11:26:03.510Z,4.60
2017-05-29T11:28:30.487Z,4.58
2017-05-29T11:30:57.436Z,4.72
2017-05-29T11:33:24.355Z,4.40
2017-05-29T11:35:51.357Z,4.40
2017-05-29T11:38:18.288Z,4.78
2017-05-29T11:40:44.480Z,4.08
2017-05-29T11:43:11.436Z,4.57
2017-05-29T11:45:38.450Z,4.53
2017-05-29T11:48:05.374Z,4.22
2017-05-29T11:50:32.341Z,4.58
2017-05-29T11:52:59.299Z,3.97
2017-05-29T11:55:26.236Z,5.00
2017-05-29T11:57:53.165Z,3.73
2017-05-29T12:00:20.132Z,4.50
2017-05-29T12:02:47.071Z,4.32
2017-05-29T12:05:14.072Z,4.42
2017-05-29T12:07:41.023Z,3.70
2017-05-29T12:10:07.976Z,3.93
2017-05-29T12:12:35.017Z,3.63
2017-05-29T12:15:01.959Z,4.27
2017-05-29T12:17:28.889Z,3.70
2017-05-29T12:19:55.836Z,3.50
2017-05-29T12:22:22.761Z,4.37
2017-05-29T12:24:49.744Z,4.40
2017-05-29T12:27:16.689Z,4.12
2017-05-29T12:29:43.697Z,4.58
2017-05-29T12:32:10.677Z,3.73
2017-05-29T12:34:37.590Z,4.50
2017-05-29T12:37:04.661Z,4.37
2017-05-29T12:39:31.614Z,4.13
2017-05-29T12:41:58.543Z,3.62
2017-05-29T12:44:25.463Z,4.32
2017-05-29T12:46:52.408Z,3.63
2017-05-29T12:49:19.377Z,4.23
2017-05-29T12:51:46.313Z,4.08
2017-05-29T12:54:13.272Z,4.28
2017-05-29T12:56:40.215Z,3.82
2017-05-29T12:59:07.136Z,3.98
2017-05-29T13:01:34.098Z,3.77
2017-05-29T13:04:01.021Z,3.92
2017-05-29T13:06:27.960Z,4.20
2017-05-29T13:08:54.916Z,4.33
2017-05-29T13:11:21.889Z,3.60
2017-05-29T13:13:48.817Z,3.50
2017-05-29T13:16:15.777Z,4.10
2017-05-29T13:18:42.705Z,3.93
2017-05-29T13:21:09.620Z,4.02
2017-05-29T13:23:36.584Z,4.10
2017-05-29T13:26:03.530Z,3.78
2017-05-29T13:28:30.464Z,4.05
2017-05-29T13:30:57.408Z,3.98
2017-05-29T13:33:24.336Z,4.55
2017-05-29T13:35:51.256Z,4.42
2017-05-29T13:38:18.205Z,4.93
2017-05-29T13:40:45.148Z,4.28
2017-05-29T13:43:12.140Z,4.78
2017-05-29T13:45:39.102Z,4.58
2017-05-29T13:48:06.112Z,4.85
2017-05-29T13:50:33.086Z,4.37
2017-05-29T13:52:59.271Z,4.40
2017-05-29T13:55:26.216Z,4.82
2017-05-29T13:57:53.182Z,6.65
2017-05-29T14:00:20.116Z,7.73
2017-05-29T14:02:47.044Z,6.55
2017-05-29T14:05:13.987Z,5.68
2017-05-29T14:07:41.000Z,6.30
2017-05-29T14:10:07.907Z,5.42
2017-05-29T14:12:34.895Z,5.13
2017-05-29T14:15:01.808Z,6.17
2017-05-29T14:17:28.752Z,5.72
2017-05-29T14:19:55.659Z,4.98
2017-05-29T14:22:22.651Z,4.93
2017-05-29T14:24:49.561Z,4.60
2017-05-29T14:27:16.495Z,5.22
2017-05-29T14:29:43.465Z,4.90
2017-05-29T14:32:10.393Z,5.33
2017-05-29T14:34:37.390Z,5.30
2017-05-29T14:37:04.297Z,6.35
2017-05-29T14:39:31.351Z,5.52
2017-05-29T14:41:58.308Z,5.42
2017-05-29T14:44:25.293Z,5.80
2017-05-29T14:46:52.211Z,6.43
2017-05-29T14:49:19.150Z,6.68
2017-05-29T14:51:46.097Z,6.47
2017-05-29T14:54:13.020Z,6.32
2017-05-29T14:56:39.949Z,7.53
2017-05-29T14:59:06.904Z,7.37
2017-05-29T15:01:33.880Z,7.37
2017-05-29T15:04:00.076Z,8.82
2017-05-29T15:06:27.024Z,12.20
2017-05-29T15:08:53.977Z,8.43
2017-05-29T15:11:20.915Z,8.05
2017-05-29T15:13:47.844Z,7.07
2017-05-29T15:16:14.820Z,7.85
2017-05-29T15:18:41.751Z,7.92
2017-05-29T15:21:08.695Z,7.87
2017-05-29T15:23:35.656Z,7.92
2017-05-29T15:26:02.584Z,8.33
2017-05-29T15:28:29.510Z,8.13
2017-05-29T15:30:55.724Z,8.48
2017-05-29T15:33:22.963Z,8.00
2017-05-29T15:35:49.897Z,8.07
2017-05-29T15:38:16.862Z,8.25
2017-05-29T15:40:43.808Z,8.93
2017-05-29T15:43:10.744Z,8.32
2017-05-29T15:45:37.694Z,8.03
2017-05-29T15:48:04.649Z,7.57
2017-05-29T15:50:31.608Z,7.48
2017-05-29T15:52:58.545Z,7.65
2017-05-29T15:55:25.479Z,7.35
2017-05-29T15:57:51.700Z,7.32
2017-05-29T16:00:18.651Z,8.17
2017-05-29T16:02:45.612Z,7.83
2017-05-29T16:05:12.557Z,7.87
2017-05-29T16:07:39.508Z,7.75
2017-05-29T16:10:06.462Z,9.05
2017-05-29T16:12:33.444Z,7.13
2017-05-29T16:15:00.424Z,7.95
2017-05-29T16:17:27.359Z,7.65
2017-05-29T16:19:54.322Z,8.33
2017-05-29T16:22:21.335Z,9.27
2017-05-29T16:24:48.327Z,8.33
2017-05-29T16:27:15.240Z,7.43
2017-05-29T16:29:42.193Z,12.53
2017-05-29T16:32:09.189Z,8.47
2017-05-29T16:34:36.117Z,8.08
2017-05-29T16:37:03.073Z,7.72
2017-05-29T16:39:29.988Z,43.68
2017-05-29T16:41:56.969Z,15.77
2017-05-29T16:44:23.907Z,10.05
2017-05-29T16:46:50.096Z,7.35
2017-05-29T16:49:17.056Z,8.23
2017-05-29T16:51:43.992Z,14.63
2017-05-29T16:54:10.968Z,34.57
2017-05-29T16:56:37.916Z,13.38
2017-05-29T16:59:04.847Z,8.68
2017-05-29T17:01:31.833Z,9.20
2017-05-29T17:03:58.791Z,8.52
2017-05-29T17:06:25.716Z,8.17
2017-05-29T17:08:52.705Z,8.35
2017-05-29T17:11:19.695Z,8.07
2017-05-29T17:13:45.873Z,8.63
2017-05-29T17:16:12.851Z,8.43
2017-05-29T17:18:39.842Z,8.27
2017-05-29T17:21:06.064Z,8.40
2017-05-29T17:23:33.035Z,8.60
2017-05-29T17:26:00.044Z,8.38
2017-05-29T17:28:27.716Z,7.77
2017-05-29T17:30:54.784Z,7.50
2017-05-29T17:33:21.744Z,7.92
2017-05-29T17:35:48.677Z,7.92
2017-05-29T17:38:15.645Z,7.03
2017-05-29T17:40:42.574Z,8.32
2017-05-29T17:43:10.394Z,7.48
2017-05-29T17:45:37.381Z,9.20
2017-05-29T17:48:04.388Z,8.97
2017-05-29T17:50:31.321Z,7.73
2017-05-29T17:52:58.251Z,9.15
2017-05-29T17:55:25.212Z,8.38
2017-05-29T17:57:52.148Z,8.45
2017-05-29T18:00:19.121Z,7.87
2017-05-29T18:02:46.054Z,8.55
2017-05-29T18:05:13.028Z,8.32
2017-05-29T18:07:40.001Z,8.30
2017-05-29T18:10:06.921Z,7.43
2017-05-29T18:12:33.115Z,7.93
2017-05-29T18:15:00.085Z,8.70
2017-05-29T18:17:27.028Z,9.33
2017-05-29T18:19:53.981Z,8.92
2017-05-29T18:22:20.294Z,8.12
2017-05-29T18:24:47.250Z,8.23
2017-05-29T18:27:14.200Z,8.95
2017-05-29T18:29:41.200Z,8.05
2017-05-29T18:32:08.183Z,8.68
2017-05-29T18:34:35.109Z,8.20
2017-05-29T18:37:02.047Z,9.23
2017-05-29T18:39:29.046Z,8.63
2017-05-29T18:41:55.994Z,8.53
2017-05-29T18:44:22.937Z,8.32
2017-05-29T18:46:49.864Z,8.22
2017-05-29T18:49:16.849Z,8.50
2017-05-29T18:51:43.776Z,8.73
2017-05-29T18:54:09.980Z,7.87
2017-05-29T18:56:37.024Z,8.98
2017-05-29T18:59:03.964Z,8.30
2017-05-29T19:01:30.892Z,8.45
2017-05-29T19:03:57.869Z,9.00
2017-05-29T19:06:24.818Z,8.08
2017-05-29T19:08:51.813Z,8.33
2017-05-29T19:11:18.869Z,9.87
2017-05-29T19:13:45.820Z,8.98
2017-05-29T19:16:12.777Z,9.68
2017-05-29T19:18:39.747Z,9.17
2017-05-29T19:21:06.721Z,9.07
2017-05-29T19:23:33.645Z,9.30
2017-05-29T19:26:00.600Z,9.48
2017-05-29T19:28:27.579Z,9.38
2017-05-29T19:30:54.501Z,10.03
2017-05-29T19:33:21.432Z,8.85
2017-05-29T19:35:48.384Z,9.18
2017-05-29T19:38:15.306Z,9.02
2017-05-29T19:40:42.243Z,9.53
2017-05-29T19:43:09.201Z,9.03
2017-05-29T19:45:36.161Z,8.92
2017-05-29T19:48:03.109Z,9.60
2017-05-29T19:50:30.138Z,8.80
2017-05-29T19:52:57.093Z,9.43
2017-05-29T19:55:24.068Z,9.93
2017-05-29T19:57:50.989Z,8.93
2017-05-29T20:00:17.919Z,9.67
2017-05-29T20:02:44.927Z,9.45
2017-05-29T20:05:11.857Z,9.25
2017-05-29T20:07:38.820Z,9.12
2017-05-29T20:10:05.740Z,10.00
2017-05-29T20:12:32.705Z,9.00
2017-05-29T20:14:59.692Z,8.80
2017-05-29T20:17:26.632Z,9.10
2017-05-29T20:19:53.541Z,9.68
2017-05-29T20:22:20.525Z,9.10
2017-05-29T20:24:47.471Z,8.33
2017-05-29T20:27:14.409Z,8.97
2017-05-29T20:29:41.359Z,9.10
2017-05-29T20:32:08.281Z,9.57
2017-05-29T20:34:35.222Z,9.12
2017-05-29T20:37:02.175Z,9.07
2017-05-29T20:39:29.108Z,9.62
2017-05-29T20:41:56.133Z,9.40
2017-05-29T20:44:23.052Z,10.30
2017-05-29T20:46:50.065Z,9.43
2017-05-29T20:49:17.061Z,9.18
2017-05-29T20:51:43.992Z,10.00
2017-05-29T20:54:10.908Z,9.20
2017-05-29T20:56:37.872Z,10.72
2017-05-29T20:59:04.793Z,10.22
2017-05-29T21:01:31.765Z,10.18
2017-05-29T21:03:58.687Z,9.72
2017-05-29T21:06:25.661Z,9.75
2017-05-29T21:08:52.632Z,9.88
2017-05-29T21:11:19.598Z,9.37
2017-05-29T21:13:46.785Z,9.55
2017-05-29T21:16:13.708Z,9.97
2017-05-29T21:18:40.653Z,9.05
2017-05-29T21:21:07.604Z,9.75
2017-05-29T21:23:34.529Z,9.63
2017-05-29T21:26:01.485Z,9.83
2017-05-29T21:28:28.440Z,9.07
2017-05-29T21:30:55.364Z,12.63
2017-05-29T21:33:22.280Z,11.92
2017-05-29T21:35:49.245Z,9.97
2017-05-29T21:38:16.169Z,10.67
2017-05-29T21:40:43.096Z,10.37
2017-05-29T21:43:10.039Z,10.58
2017-05-29T21:45:36.977Z,9.97
2017-05-29T21:48:03.940Z,10.47
2017-05-29T21:50:30.855Z,8.48
2017-05-29T21:52:57.811Z,9.52
2017-05-29T21:55:24.732Z,8.65
2017-05-29T21:57:51.663Z,9.15
2017-05-29T22:00:18.595Z,9.42
2017-05-29T22:02:45.531Z,11.00
2017-05-29T22:05:12.480Z,10.03
2017-05-29T22:07:39.463Z,10.55
2017-05-29T22:10:06.390Z,10.03
2017-05-29T22:12:33.311Z,9.57
2017-05-29T22:15:00.297Z,9.43
2017-05-29T22:17:27.221Z,10.10
2017-05-29T22:19:54.169Z,10.08
2017-05-29T22:22:21.133Z,9.48
2017-05-29T22:24:48.369Z,10.55
2017-05-29T22:27:15.310Z,10.22
2017-05-29T22:29:42.270Z,9.60
2017-05-29T22:32:09.209Z,10.55
2017-05-29T22:34:36.123Z,10.07
2017-05-29T22:37:03.055Z,9.77
2017-05-29T22:39:29.976Z,9.60
2017-05-29T22:41:56.933Z,9.72
2017-05-29T22:44:23.852Z,9.70
2017-05-29T22:46:50.800Z,9.62
2017-05-29T22:49:17.721Z,9.85
2017-05-29T22:51:44.633Z,10.30
2017-05-29T22:54:11.581Z,10.97
2017-05-29T22:56:38.512Z,10.27
2017-05-29T22:59:05.419Z,9.77
2017-05-29T23:01:32.400Z,9.82
2017-05-29T23:03:59.315Z,9.18
2017-05-29T23:06:26.418Z,8.98
2017-05-29T23:08:53.414Z,10.38
2017-05-29T23:11:20.332Z,10.63
2017-05-29T23:13:47.254Z,10.67
2017-05-29T23:16:14.251Z,11.13
2017-05-29T23:18:41.249Z,10.30
2017-05-29T23:21:08.207Z,9.88
2017-05-29T23:23:35.113Z,10.33
2017-05-29T23:26:02.024Z,9.00
2017-05-29T23:28:28.964Z,8.98
2017-05-29T23:30:55.888Z,9.42
2017-05-29T23:33:22.792Z,9.20
2017-05-29T23:35:49.721Z,8.77
2017-05-29T23:38:16.640Z,7.90
2017-05-29T23:40:43.613Z,6.57
2017-05-29T23:43:10.538Z,6.08
2017-05-29T23:45:36.704Z,5.67
2017-05-29T23:48:03.631Z,5.65
2017-05-29T23:50:30.557Z,5.80
2017-05-29T23:52:57.586Z,5.23
2017-05-29T23:55:24.503Z,5.57
2017-05-29T23:57:51.425Z,5.87
